createdAt,value
2017-06-11T00:02:11.957Z,4.70
2017-06-11T00:04:39.582Z,4.60
2017-06-11T00:07:07.065Z,5.20
2017-06-11T00:09:34.548Z,5.77
2017-06-11T00:12:02.281Z,4.50
2017-06-11T00:14:29.757Z,5.10
2017-06-11T00:16:57.268Z,6.10
2017-06-11T00:19:24.913Z,6.80
2017-06-11T00:21:52.464Z,5.10
2017-06-11T00:24:20.000Z,4.90
2017-06-11T00:26:47.525Z,5.80
2017-06-11T00:29:15.808Z,5.40
2017-06-11T00:31:43.284Z,5.50
2017-06-11T00:34:10.996Z,5.27
2017-06-11T00:36:38.637Z,5.50
2017-06-11T00:39:06.120Z,5.63
2017-06-11T00:41:33.653Z,6.07
2017-06-11T00:44:01.966Z,6.03
2017-06-11T00:46:30.113Z,6.20
2017-06-11T00:48:57.700Z,5.33
2017-06-11T00:51:26.559Z,5.50
2017-06-11T00:53:54.037Z,6.30
2017-06-11T00:56:27.184Z,6.57
2017-06-11T00:58:54.664Z,5.60
2017-06-11T01:01:22.177Z,6.10
2017-06-11T01:03:49.681Z,6.10
2017-06-11T01:06:17.969Z,5.80
2017-06-11T01:08:45.788Z,6.53
2017-06-11T01:11:13.260Z,6.90
2017-06-11T01:13:40.800Z,6.57
2017-06-11T01:16:08.524Z,6.10
2017-06-11T01:18:36.772Z,6.27
2017-06-11T01:21:04.252Z,5.80
2017-06-11T01:23:31.808Z,6.50
2017-06-11T01:25:59.336Z,6.37
2017-06-11T01:28:26.817Z,6.27
2017-06-11T01:30:54.524Z,6.70
2017-06-11T01:33:22.077Z,6.70
2017-06-11T01:35:49.609Z,6.10
2017-06-11T01:38:17.129Z,6.30
2017-06-11T01:40:44.612Z,5.93
2017-06-11T01:43:12.106Z,6.70
2017-06-11T01:45:39.637Z,6.30
2017-06-11T01:48:07.117Z,6.30
2017-06-11T01:50:34.593Z,6.60
2017-06-11T01:53:02.237Z,6.93
2017-06-11T01:55:29.721Z,6.20
2017-06-11T01:57:57.358Z,6.13
2017-06-11T02:00:25.144Z,5.97
2017-06-11T02:02:52.624Z,6.07
2017-06-11T02:05:20.114Z,6.90
2017-06-11T02:07:48.514Z,5.90
2017-06-11T02:10:15.996Z,6.50
2017-06-11T02:12:43.472Z,7.00
2017-06-11T02:15:11.232Z,6.93
2017-06-11T02:17:38.724Z,6.00
2017-06-11T02:20:06.200Z,6.37
2017-06-11T02:22:33.724Z,6.23
2017-06-11T02:25:01.209Z,6.27
2017-06-11T02:27:28.816Z,6.13
2017-06-11T02:29:57.101Z,6.23
2017-06-11T02:32:24.614Z,6.23
2017-06-11T02:34:52.101Z,6.07
2017-06-11T02:37:19.621Z,6.13
2017-06-11T02:39:47.868Z,6.90
2017-06-11T02:42:16.125Z,6.70
2017-06-11T02:44:44.409Z,6.57
2017-06-11T02:47:11.957Z,7.17
2017-06-11T02:49:39.442Z,6.73
2017-06-11T02:52:07.046Z,6.63
2017-06-11T02:54:34.528Z,7.13
2017-06-11T02:57:02.001Z,7.20
2017-06-11T02:59:30.420Z,7.40
2017-06-11T03:01:57.907Z,7.10
2017-06-11T03:04:25.392Z,6.60
2017-06-11T03:06:53.021Z,7.33
2017-06-11T03:09:20.500Z,6.30
2017-06-11T03:11:59.854Z,7.60
2017-06-11T03:14:27.337Z,7.37
2017-06-11T03:16:54.822Z,6.90
2017-06-11T03:19:22.588Z,8.00
2017-06-11T03:21:50.837Z,7.43
2017-06-11T03:24:18.347Z,7.27
2017-06-11T03:26:45.848Z,6.50
2017-06-11T03:29:14.100Z,6.70
2017-06-11T03:31:42.353Z,6.77
2017-06-11T03:34:10.029Z,7.10
2017-06-11T03:36:37.510Z,7.43
2017-06-11T03:39:04.994Z,7.17
2017-06-11T03:41:33.289Z,7.70
2017-06-11T03:44:00.772Z,6.27
2017-06-11T03:46:28.258Z,6.70
2017-06-11T03:48:56.032Z,7.70
2017-06-11T03:51:23.523Z,8.90
2017-06-11T03:53:51.816Z,7.80
2017-06-11T03:56:19.518Z,6.70
2017-06-11T03:58:46.999Z,6.40
2017-06-11T04:01:14.551Z,6.87
2017-06-11T04:03:42.179Z,7.40
2017-06-11T04:06:09.661Z,6.83
2017-06-11T04:08:37.145Z,6.73
2017-06-11T04:11:05.551Z,7.10
2017-06-11T04:13:33.037Z,7.50
2017-06-11T04:16:00.516Z,7.07
2017-06-11T04:18:28.042Z,7.10
2017-06-11T04:20:56.309Z,6.57
2017-06-11T04:23:24.553Z,5.63
2017-06-11T04:25:52.837Z,7.50
2017-06-11T04:28:21.109Z,6.27
2017-06-11T04:30:48.583Z,6.40
2017-06-11T04:33:16.329Z,6.20
2017-06-11T04:35:43.808Z,5.83
2017-06-11T04:38:11.280Z,5.50
2017-06-11T04:40:38.800Z,5.83
2017-06-11T04:43:07.056Z,6.17
2017-06-11T04:45:35.300Z,5.50
2017-06-11T04:48:03.193Z,5.90
2017-06-11T04:50:30.673Z,5.57
2017-06-11T04:52:58.147Z,5.27
2017-06-11T04:55:25.825Z,5.17
2017-06-11T04:57:53.300Z,5.43
2017-06-11T05:00:20.784Z,5.27
2017-06-11T05:02:49.257Z,5.57
2017-06-11T05:05:17.506Z,5.23
2017-06-11T05:07:45.752Z,5.67
2017-06-11T05:10:13.270Z,5.00
2017-06-11T05:12:40.740Z,5.33
2017-06-11T05:15:08.221Z,5.30
2017-06-11T05:17:35.716Z,5.17
2017-06-11T05:20:03.203Z,5.23
2017-06-11T05:22:30.744Z,5.87
2017-06-11T05:24:58.352Z,5.00
2017-06-11T05:27:25.828Z,5.50
2017-06-11T05:29:53.380Z,5.07
2017-06-11T05:32:21.220Z,5.43
2017-06-11T05:34:48.696Z,5.50
2017-06-11T05:37:16.208Z,5.13
2017-06-11T05:39:43.856Z,5.53
2017-06-11T05:42:11.340Z,5.17
2017-06-11T05:44:38.818Z,5.17
2017-06-11T05:47:07.204Z,4.73
2017-06-11T05:49:34.684Z,5.57
2017-06-11T05:52:02.309Z,4.90
2017-06-11T05:54:29.824Z,5.10
2017-06-11T05:56:58.076Z,5.40
2017-06-11T05:59:26.544Z,4.23
2017-06-11T06:01:54.032Z,4.77
2017-06-11T06:04:21.541Z,6.03
2017-06-11T06:06:49.193Z,5.13
2017-06-11T06:09:16.678Z,4.60
2017-06-11T06:11:44.185Z,5.23
2017-06-11T06:14:11.885Z,4.60
2017-06-11T06:16:39.368Z,5.30
2017-06-11T06:19:06.901Z,5.00
2017-06-11T06:21:34.420Z,5.03
2017-06-11T06:24:02.668Z,4.37
2017-06-11T06:26:30.149Z,5.50
2017-06-11T06:28:57.900Z,5.50
2017-06-11T06:31:25.384Z,5.30
2017-06-11T06:33:52.862Z,4.67
2017-06-11T06:36:21.169Z,4.77
2017-06-11T06:38:48.689Z,4.40
2017-06-11T06:41:16.221Z,4.77
2017-06-11T06:43:44.508Z,4.70
2017-06-11T06:46:11.988Z,4.90
2017-06-11T06:48:39.460Z,5.10
2017-06-11T06:51:07.719Z,5.10
2017-06-11T06:53:35.201Z,4.80
2017-06-11T06:56:02.684Z,4.97
2017-06-11T06:58:30.307Z,4.43
2017-06-11T07:00:58.139Z,4.30
2017-06-11T07:03:25.629Z,5.37
2017-06-11T07:05:53.137Z,4.10
2017-06-11T07:08:20.624Z,4.60
2017-06-11T07:10:48.868Z,4.03
2017-06-11T07:13:16.389Z,4.53
2017-06-11T07:15:43.869Z,3.50
2017-06-11T07:18:12.112Z,4.00
2017-06-11T07:20:39.635Z,4.10
2017-06-11T07:23:07.113Z,4.77
2017-06-11T07:25:35.356Z,4.63
2017-06-11T07:28:03.041Z,4.13
2017-06-11T07:30:30.536Z,4.60
2017-06-11T07:32:58.016Z,3.97
2017-06-11T07:35:25.774Z,3.77
2017-06-11T07:37:53.254Z,3.90
2017-06-11T07:40:20.736Z,4.10
2017-06-11T07:42:49.135Z,3.90
2017-06-11T07:45:16.622Z,3.90
2017-06-11T07:47:44.105Z,4.07
2017-06-11T07:50:11.649Z,4.10
2017-06-11T07:52:39.120Z,4.27
2017-06-11T07:55:06.600Z,3.93
2017-06-11T07:57:35.200Z,4.40
2017-06-11T08:00:02.697Z,3.93
2017-06-11T08:02:30.966Z,4.13
2017-06-11T08:04:58.461Z,4.10
2017-06-11T08:07:25.948Z,4.17
2017-06-11T08:09:53.445Z,3.80
2017-06-11T08:12:20.924Z,4.00
2017-06-11T08:14:48.408Z,3.83
2017-06-11T08:17:16.170Z,3.80
2017-06-11T08:19:43.682Z,4.00
2017-06-11T08:22:11.213Z,3.27
2017-06-11T08:24:39.719Z,4.07
2017-06-11T08:27:07.229Z,3.80
2017-06-11T08:29:35.476Z,4.40
2017-06-11T08:32:03.100Z,4.17
2017-06-11T08:34:30.687Z,3.37
2017-06-11T08:36:58.255Z,3.77
2017-06-11T08:39:25.996Z,3.87
2017-06-11T08:41:53.593Z,3.50
2017-06-11T08:44:21.139Z,3.50
2017-06-11T08:46:48.644Z,3.63
2017-06-11T08:49:16.121Z,3.43
2017-06-11T08:51:43.653Z,2.93
2017-06-11T08:54:11.149Z,3.90
2017-06-11T08:56:38.645Z,3.33
2017-06-11T08:59:06.168Z,3.20
2017-06-11T09:01:33.680Z,3.13
2017-06-11T09:04:01.225Z,3.23
2017-06-11T09:06:28.877Z,2.87
2017-06-11T09:08:56.383Z,3.00
2017-06-11T09:11:23.865Z,2.97
2017-06-11T09:13:51.357Z,4.07
2017-06-11T09:16:18.838Z,2.80
2017-06-11T09:18:46.593Z,2.90
2017-06-11T09:21:14.079Z,2.83
2017-06-11T09:23:41.556Z,3.23
2017-06-11T09:26:09.865Z,3.63
2017-06-11T09:28:37.332Z,3.27
2017-06-11T09:31:04.805Z,3.17
2017-06-11T09:33:33.826Z,2.57
2017-06-11T09:36:02.220Z,2.67
2017-06-11T09:38:29.809Z,3.23
2017-06-11T09:40:57.316Z,3.07
2017-06-11T09:43:24.860Z,3.33
2017-06-11T09:45:52.405Z,2.73
2017-06-11T09:48:19.948Z,3.23
2017-06-11T09:50:47.492Z,3.40
2017-06-11T09:53:15.065Z,3.10
2017-06-11T09:55:42.573Z,2.53
2017-06-11T09:58:10.060Z,2.93
2017-06-11T10:00:37.552Z,3.13
2017-06-11T10:03:05.069Z,3.17
2017-06-11T10:05:32.546Z,3.10
2017-06-11T10:08:00.024Z,3.00
2017-06-11T10:10:27.677Z,3.00
2017-06-11T10:12:55.161Z,2.70
2017-06-11T10:15:22.647Z,2.97
2017-06-11T10:17:50.164Z,2.90
2017-06-11T10:20:17.648Z,2.87
2017-06-11T10:22:45.530Z,2.43
2017-06-11T10:25:13.045Z,2.73
2017-06-11T10:27:40.526Z,2.67
2017-06-11T10:30:08.001Z,3.50
2017-06-11T10:32:35.494Z,2.73
2017-06-11T10:35:02.993Z,2.80
2017-06-11T10:37:30.474Z,2.97
2017-06-11T10:39:57.957Z,2.47
2017-06-11T10:42:25.584Z,2.77
2017-06-11T10:44:53.073Z,3.03
2017-06-11T10:47:20.553Z,3.07
2017-06-11T10:49:48.259Z,2.67
2017-06-11T10:52:15.749Z,3.10
2017-06-11T10:54:43.289Z,2.60
2017-06-11T10:57:10.902Z,2.90
2017-06-11T10:59:38.393Z,2.70
2017-06-11T11:02:05.873Z,2.47
2017-06-11T11:04:33.484Z,2.33
2017-06-11T11:07:01.030Z,2.93
2017-06-11T11:09:28.506Z,2.80
2017-06-11T11:11:56.013Z,2.33
2017-06-11T11:14:23.489Z,3.20
2017-06-11T11:16:50.969Z,2.47
2017-06-11T11:19:19.256Z,2.67
2017-06-11T11:21:46.739Z,2.57
2017-06-11T11:24:14.217Z,2.67
2017-06-11T11:26:41.709Z,2.77
2017-06-11T11:29:09.232Z,2.70
2017-06-11T11:31:36.708Z,2.87
2017-06-11T11:34:04.236Z,2.40
2017-06-11T11:36:31.712Z,2.77
2017-06-11T11:38:59.995Z,2.33
2017-06-11T11:41:27.596Z,2.50
2017-06-11T11:43:55.077Z,2.80
2017-06-11T11:46:22.576Z,2.50
2017-06-11T11:48:50.120Z,2.50
2017-06-11T11:51:17.638Z,2.10
2017-06-11T11:53:45.911Z,2.60
2017-06-11T11:56:13.428Z,2.33
2017-06-11T11:58:41.003Z,2.27
2017-06-11T12:01:08.487Z,2.37
2017-06-11T12:03:35.992Z,2.50
2017-06-11T12:06:03.479Z,2.47
2017-06-11T12:08:31.162Z,2.50
2017-06-11T12:10:59.450Z,2.93
2017-06-11T12:13:26.984Z,2.73
2017-06-11T12:15:54.536Z,2.93
2017-06-11T12:18:22.080Z,2.77
2017-06-11T12:20:49.616Z,2.33
2017-06-11T12:23:17.312Z,2.47
2017-06-11T12:25:44.797Z,2.30
2017-06-11T12:28:13.980Z,2.57
2017-06-11T12:30:42.260Z,2.90
2017-06-11T12:33:09.741Z,2.40
2017-06-11T12:35:37.213Z,2.67
2017-06-11T12:38:05.492Z,2.30
2017-06-11T12:40:32.964Z,2.40
2017-06-11T12:43:00.438Z,2.70
2017-06-11T12:45:28.073Z,2.97
2017-06-11T12:47:55.548Z,2.70
2017-06-11T12:50:23.790Z,2.50
2017-06-11T12:52:51.308Z,2.40
2017-06-11T12:55:19.308Z,2.37
2017-06-11T12:57:46.861Z,2.77
2017-06-11T13:00:14.529Z,2.50
2017-06-11T13:02:42.009Z,2.23
2017-06-11T13:05:09.484Z,2.80
2017-06-11T13:07:37.956Z,2.47
2017-06-11T13:10:05.433Z,2.70
2017-06-11T13:12:32.916Z,2.80
2017-06-11T13:15:00.588Z,2.63
2017-06-11T13:17:28.068Z,2.53
2017-06-11T13:19:55.541Z,2.57
2017-06-11T13:22:23.220Z,2.77
2017-06-11T13:24:50.698Z,2.37
2017-06-11T13:27:18.177Z,2.67
2017-06-11T13:29:45.680Z,3.20
2017-06-11T13:32:13.161Z,2.87
2017-06-11T13:34:40.640Z,3.40
2017-06-11T13:37:08.138Z,3.50
2017-06-11T13:39:35.624Z,4.77
2017-06-11T13:42:03.108Z,2.97
2017-06-11T13:44:30.805Z,2.93
2017-06-11T13:46:58.285Z,2.40
2017-06-11T13:49:25.760Z,3.23
2017-06-11T13:51:53.257Z,2.50
2017-06-11T13:54:20.736Z,3.20
2017-06-11T13:56:48.217Z,2.50
2017-06-11T13:59:15.802Z,3.10
2017-06-11T14:01:43.285Z,2.90
2017-06-11T14:04:11.533Z,2.90
2017-06-11T14:06:40.032Z,2.83
2017-06-11T14:09:08.254Z,2.83
2017-06-11T14:11:35.816Z,2.90
2017-06-11T14:14:03.412Z,2.93
2017-06-11T14:16:30.916Z,2.57
2017-06-11T14:18:58.392Z,2.80
2017-06-11T14:21:34.796Z,2.67
2017-06-11T14:24:03.047Z,3.03
2017-06-11T14:26:31.293Z,2.40
2017-06-11T14:28:58.797Z,2.53
2017-06-11T14:31:26.279Z,3.27
2017-06-11T14:33:54.167Z,2.70
2017-06-11T14:36:21.649Z,4.17
2017-06-11T14:38:49.125Z,2.80
2017-06-11T14:41:17.389Z,5.63
2017-06-11T14:43:45.701Z,3.80
2017-06-11T14:46:13.185Z,2.83
2017-06-11T14:48:40.708Z,3.10
2017-06-11T14:51:08.185Z,3.30
2017-06-11T14:53:36.446Z,2.57
2017-06-11T14:56:04.725Z,2.57
2017-06-11T14:58:32.667Z,2.70
2017-06-11T15:01:00.165Z,2.90
2017-06-11T15:03:27.760Z,3.23
2017-06-11T15:05:55.238Z,3.57
2017-06-11T15:08:22.756Z,3.00
2017-06-11T15:10:50.276Z,3.43
2017-06-11T15:13:18.557Z,2.90
2017-06-11T15:15:46.097Z,2.80
2017-06-11T15:18:13.868Z,2.80
2017-06-11T15:20:41.348Z,3.00
2017-06-11T15:23:08.932Z,2.73
2017-06-11T15:25:36.676Z,2.87
2017-06-11T15:28:04.217Z,3.20
2017-06-11T15:30:31.761Z,3.53
2017-06-11T15:32:59.275Z,3.23
2017-06-11T15:35:26.856Z,2.70
2017-06-11T15:37:54.397Z,2.93
2017-06-11T15:40:21.937Z,3.20
2017-06-11T15:42:49.480Z,3.43
2017-06-11T15:45:17.024Z,3.70
2017-06-11T15:47:44.552Z,2.97
2017-06-11T15:50:12.796Z,6.57
2017-06-11T15:52:40.273Z,4.70
2017-06-11T15:55:07.973Z,4.77
2017-06-11T15:57:35.460Z,4.30
2017-06-11T16:00:02.932Z,3.17
2017-06-11T16:02:30.593Z,3.00
2017-06-11T16:04:58.085Z,3.57
2017-06-11T16:07:25.588Z,2.80
2017-06-11T16:09:53.105Z,5.07
2017-06-11T16:12:20.580Z,5.77
2017-06-11T16:14:48.056Z,5.10
2017-06-11T16:17:15.644Z,4.80
2017-06-11T16:19:43.970Z,5.13
2017-06-11T16:22:11.492Z,5.87
2017-06-11T16:24:39.748Z,5.13
2017-06-11T16:27:07.988Z,4.10
2017-06-11T16:29:35.621Z,4.60
2017-06-11T16:32:03.104Z,3.93
2017-06-11T16:34:30.577Z,4.20
2017-06-11T16:36:58.090Z,4.00
2017-06-11T16:39:25.564Z,3.87
2017-06-11T16:41:53.040Z,5.60
2017-06-11T16:44:20.553Z,4.80
2017-06-11T16:46:48.885Z,5.90
2017-06-11T16:49:16.364Z,4.70
2017-06-11T16:51:44.221Z,4.93
2017-06-11T16:54:11.712Z,4.70
2017-06-11T16:56:39.960Z,5.80
2017-06-11T16:59:08.322Z,4.40
2017-06-11T17:01:36.576Z,4.57
2017-06-11T17:04:04.828Z,5.00
2017-06-11T17:06:32.405Z,5.00
2017-06-11T17:08:59.956Z,4.70
2017-06-11T17:11:27.433Z,5.00
2017-06-11T17:13:54.949Z,5.70
2017-06-11T17:16:22.425Z,5.00
2017-06-11T17:18:49.904Z,5.67
2017-06-11T17:21:18.305Z,6.03
2017-06-11T17:23:45.789Z,5.50
2017-06-11T17:26:13.272Z,5.60
2017-06-11T17:28:40.797Z,6.17
2017-06-11T17:31:09.055Z,6.60
2017-06-11T17:33:37.301Z,6.33
2017-06-11T17:36:04.797Z,7.50
2017-06-11T17:38:32.273Z,6.00
2017-06-11T17:40:59.752Z,4.40
2017-06-11T17:43:27.269Z,5.20
2017-06-11T17:45:54.757Z,5.30
2017-06-11T17:48:22.240Z,4.90
2017-06-11T17:50:50.265Z,4.77
2017-06-11T17:53:17.744Z,4.80
2017-06-11T17:55:45.225Z,4.97
2017-06-11T17:58:12.728Z,6.33
2017-06-11T18:00:40.215Z,6.50
2017-06-11T18:03:07.696Z,6.70
2017-06-11T18:05:35.500Z,10.27
2017-06-11T18:08:02.988Z,7.50
2017-06-11T18:10:30.468Z,7.03
2017-06-11T18:12:58.860Z,5.70
2017-06-11T18:15:26.341Z,6.30
2017-06-11T18:17:53.821Z,6.53
2017-06-11T18:20:22.103Z,5.27
2017-06-11T18:22:49.585Z,6.53
2017-06-11T18:25:17.065Z,8.70
2017-06-11T18:27:45.317Z,6.40
2017-06-11T18:30:13.602Z,6.43
2017-06-11T18:32:41.084Z,5.63
2017-06-11T18:35:08.564Z,12.90
2017-06-11T18:37:36.862Z,12.07
2017-06-11T18:40:04.357Z,10.63
2017-06-11T18:42:32.608Z,8.70
2017-06-11T18:45:00.173Z,7.27
2017-06-11T18:47:28.424Z,7.30
2017-06-11T18:49:56.672Z,8.67
2017-06-11T18:52:24.160Z,6.87
2017-06-11T18:54:51.638Z,6.30
2017-06-11T18:57:19.335Z,6.60
2017-06-11T18:59:46.824Z,6.80
2017-06-11T19:02:14.302Z,6.60
2017-06-11T19:04:42.892Z,7.97
2017-06-11T19:07:10.383Z,7.10
2017-06-11T19:09:37.864Z,6.60
2017-06-11T19:12:06.157Z,7.60
2017-06-11T19:14:33.709Z,7.20
2017-06-11T19:17:01.189Z,6.70
2017-06-11T19:19:28.710Z,8.20
2017-06-11T19:21:56.190Z,6.50
2017-06-11T19:24:24.432Z,7.40
2017-06-11T19:26:51.952Z,7.27
2017-06-11T19:29:19.445Z,7.10
2017-06-11T19:31:46.924Z,8.53
2017-06-11T19:34:14.408Z,8.87
2017-06-11T19:36:41.931Z,7.60
2017-06-11T19:39:09.421Z,7.40
2017-06-11T19:41:36.900Z,7.67
2017-06-11T19:44:04.404Z,7.60
2017-06-11T19:46:31.882Z,7.47
2017-06-11T19:48:59.364Z,8.47
2017-06-11T19:51:26.889Z,8.00
2017-06-11T19:53:54.373Z,8.33
2017-06-11T19:56:21.854Z,8.10
2017-06-11T19:58:49.374Z,8.60
2017-06-11T20:01:16.948Z,8.53
2017-06-11T20:03:44.476Z,8.80
2017-06-11T20:06:12.117Z,8.37
2017-06-11T20:08:39.600Z,7.90
2017-06-11T20:11:07.080Z,8.40
2017-06-11T20:13:35.345Z,7.80
2017-06-11T20:16:03.587Z,8.40
2017-06-11T20:18:31.096Z,7.17
2017-06-11T20:20:59.348Z,6.80
2017-06-11T20:23:27.637Z,6.60
2017-06-11T20:25:55.284Z,7.60
2017-06-11T20:28:22.848Z,8.00
2017-06-11T20:30:50.372Z,6.93
2017-06-11T20:33:18.009Z,6.87
2017-06-11T20:35:45.489Z,6.93
2017-06-11T20:38:12.969Z,6.37
2017-06-11T20:40:41.513Z,6.00
2017-06-11T20:43:08.997Z,6.80
2017-06-11T20:45:36.488Z,6.33
2017-06-11T20:48:03.994Z,6.90
2017-06-11T20:50:31.509Z,5.67
2017-06-11T20:52:59.761Z,6.20
2017-06-11T20:55:27.281Z,7.37
2017-06-11T20:57:54.760Z,6.87
2017-06-11T21:00:23.012Z,7.00
2017-06-11T21:02:50.513Z,6.70
2017-06-11T21:05:18.051Z,7.17
2017-06-11T21:07:45.533Z,7.47
2017-06-11T21:10:13.052Z,9.10
2017-06-11T21:12:40.751Z,7.33
2017-06-11T21:15:08.309Z,6.80
2017-06-11T21:17:36.885Z,7.17
2017-06-11T21:20:04.364Z,7.77
2017-06-11T21:22:31.868Z,7.17
2017-06-11T21:24:59.408Z,6.90
2017-06-11T21:27:26.956Z,6.87
2017-06-11T21:29:54.440Z,7.43
2017-06-11T21:32:21.948Z,8.13
2017-06-11T21:34:49.431Z,6.97
2017-06-11T21:37:17.030Z,7.70
2017-06-11T21:39:44.576Z,7.90
2017-06-11T21:42:12.320Z,8.80
2017-06-11T21:44:39.865Z,8.20
2017-06-11T21:47:07.401Z,7.53
2017-06-11T21:49:34.949Z,8.77
2017-06-11T21:52:02.496Z,7.67
2017-06-11T21:54:29.976Z,8.00
2017-06-11T21:56:57.540Z,7.00
2017-06-11T21:59:25.016Z,7.27
2017-06-11T22:01:52.538Z,7.43
2017-06-11T22:04:20.016Z,7.43
2017-06-11T22:06:47.561Z,7.00
2017-06-11T22:09:15.082Z,7.80
2017-06-11T22:11:43.365Z,7.70
2017-06-11T22:14:10.904Z,6.93
2017-06-11T22:16:38.656Z,6.97
2017-06-11T22:19:06.201Z,6.70
2017-06-11T22:21:33.749Z,6.40
2017-06-11T22:24:01.285Z,7.90
2017-06-11T22:26:28.761Z,6.83
2017-06-11T22:28:56.272Z,7.20
2017-06-11T22:31:23.792Z,6.60
2017-06-11T22:33:52.036Z,6.80
2017-06-11T22:36:19.521Z,6.40
2017-06-11T22:38:47.060Z,6.17
2017-06-11T22:41:14.605Z,9.23
2017-06-11T22:43:42.079Z,8.53
2017-06-11T22:46:09.596Z,8.60
2017-06-11T22:48:37.133Z,6.97
2017-06-11T22:51:04.980Z,6.90
2017-06-11T22:53:32.525Z,6.03
2017-06-11T22:56:00.010Z,5.77
2017-06-11T22:58:27.705Z,5.83
2017-06-11T23:00:55.976Z,7.40
2017-06-11T23:03:23.505Z,8.67
2017-06-11T23:05:51.352Z,9.00
2017-06-11T23:08:18.897Z,6.53
2017-06-11T23:10:46.372Z,5.40
2017-06-11T23:13:13.980Z,4.80
2017-06-11T23:15:41.468Z,4.17
2017-06-11T23:18:08.964Z,4.43
2017-06-11T23:20:36.508Z,4.70
2017-06-11T23:23:03.995Z,3.93
2017-06-11T23:25:31.481Z,3.90
2017-06-11T23:27:59.757Z,4.93
2017-06-11T23:30:27.297Z,3.80
2017-06-11T23:32:54.841Z,3.47
2017-06-11T23:35:22.388Z,3.53
2017-06-11T23:37:49.868Z,3.97
2017-06-11T23:40:17.344Z,3.57
2017-06-11T23:42:45.893Z,2.90
2017-06-11T23:45:13.374Z,2.17
2017-06-11T23:47:40.853Z,2.70
2017-06-11T23:50:08.469Z,2.10
2017-06-11T23:52:36.004Z,2.00
2017-06-11T23:55:03.578Z,2.27
2017-06-11T23:57:31.088Z,1.93
2017-06-11T23:59:59.362Z,2.13
